createdAt,value
2022-08-28T00:04:15.499Z,16.92
2022-08-28T00:09:19.195Z,15.55
2022-08-28T00:14:24.594Z,11.35
2022-08-28T00:19:28.906Z,17.02
2022-08-28T00:24:31.801Z,12.68
2022-08-28T00:29:36.428Z,14.60
2022-08-28T00:34:39.426Z,16.15
2022-08-28T00:39:42.326Z,18.02
2022-08-28T00:44:47.160Z,22.83
2022-08-28T00:49:53.425Z,17.17
2022-08-28T00:54:59.957Z,14.77
2022-08-28T01:00:11.702Z,15.00
2022-08-28T01:10:22.206Z,16.48
2022-08-28T01:15:35.627Z,11.90
2022-08-28T01:20:44.393Z,19.65
2022-08-28T01:25:49.269Z,20.00
2022-08-28T01:30:52.693Z,15.00
2022-08-28T01:35:56.204Z,14.50
2022-08-28T01:41:00.623Z,14.63
2022-08-28T01:46:06.413Z,19.00
2022-08-28T01:51:10.663Z,14.93
2022-08-28T01:56:17.070Z,16.02
2022-08-28T02:01:22.098Z,16.80
2022-08-28T02:06:25.976Z,12.23
2022-08-28T02:11:32.428Z,16.27
2022-08-28T02:16:35.473Z,17.33
2022-08-28T02:21:38.638Z,14.65
2022-08-28T02:26:44.749Z,16.23
2022-08-28T02:31:48.037Z,17.65
2022-08-28T02:36:51.066Z,13.52
2022-08-28T02:41:55.765Z,18.83
2022-08-28T02:46:58.897Z,16.08
2022-08-28T02:52:02.300Z,14.35
2022-08-28T02:57:08.606Z,16.45
2022-08-28T03:02:11.928Z,14.57
2022-08-28T03:07:16.982Z,17.30
2022-08-28T03:12:24.729Z,16.88
2022-08-28T03:17:27.846Z,13.63
2022-08-28T03:22:49.550Z,12.10
2022-08-28T03:27:55.379Z,17.33
2022-08-28T03:32:58.738Z,16.92
2022-08-28T03:38:02.269Z,14.77
2022-08-28T03:43:07.078Z,16.25
2022-08-28T03:48:10.199Z,17.38
2022-08-28T03:53:13.579Z,15.60
2022-08-28T03:58:18.816Z,17.55
2022-08-28T04:03:22.427Z,17.58
2022-08-28T04:08:25.785Z,19.05
2022-08-28T04:13:30.822Z,16.33
2022-08-28T04:18:34.746Z,17.95
2022-08-28T04:23:38.875Z,11.45
2022-08-28T04:28:44.139Z,17.13
2022-08-28T04:33:46.984Z,15.75
2022-08-28T04:38:51.029Z,17.55
2022-08-28T04:43:57.647Z,12.13
2022-08-28T04:49:01.165Z,14.95
2022-08-28T04:54:04.234Z,20.58
2022-08-28T04:59:10.197Z,16.33
2022-08-28T05:04:13.480Z,16.02
2022-08-28T05:09:18.852Z,16.42
2022-08-28T05:14:23.573Z,18.40
2022-08-28T05:19:28.302Z,18.30
2022-08-28T05:24:31.406Z,15.73
2022-08-28T05:29:35.799Z,19.48
2022-08-28T05:34:38.704Z,19.05
2022-08-28T05:39:41.674Z,17.60
2022-08-28T05:44:46.302Z,20.30
2022-08-28T05:49:49.255Z,13.25
2022-08-28T05:54:55.959Z,15.10
2022-08-28T06:00:00.918Z,14.93
2022-08-28T06:05:04.464Z,19.65
2022-08-28T06:10:10.489Z,18.77
2022-08-28T06:15:15.718Z,21.48
2022-08-28T06:20:19.532Z,13.18
2022-08-28T06:25:22.776Z,14.35
2022-08-28T06:30:27.416Z,12.13
2022-08-28T06:35:34.590Z,13.68
2022-08-28T06:40:42.503Z,18.95
2022-08-28T06:45:48.588Z,17.92
2022-08-28T06:50:53.361Z,15.82
2022-08-28T06:55:59.019Z,20.45
2022-08-28T07:01:06.159Z,16.15
2022-08-28T07:06:10.901Z,16.00
2022-08-28T07:11:16.264Z,15.05
2022-08-28T07:16:22.975Z,18.25
2022-08-28T07:21:26.646Z,13.10
2022-08-28T07:26:29.861Z,13.77
2022-08-28T07:31:38.613Z,15.05
2022-08-28T07:36:42.048Z,12.18
2022-08-28T07:41:47.054Z,13.80
2022-08-28T07:46:54.005Z,14.70
2022-08-28T07:51:57.236Z,13.90
2022-08-28T07:57:00.310Z,13.50
2022-08-28T08:02:05.927Z,12.98
2022-08-28T08:07:10.453Z,10.05
2022-08-28T08:12:15.305Z,12.27
2022-08-28T08:17:19.860Z,15.57
2022-08-28T08:22:23.705Z,16.23
2022-08-28T08:27:27.685Z,14.05
2022-08-28T08:32:32.110Z,9.88
2022-08-28T08:37:35.094Z,12.85
2022-08-28T08:42:38.923Z,14.13
2022-08-28T08:47:48.897Z,11.85
2022-08-28T08:53:08.462Z,12.30
2022-08-28T08:58:17.658Z,12.00
2022-08-28T09:03:25.510Z,14.15
2022-08-28T09:08:36.877Z,12.85
2022-08-28T09:13:50.017Z,11.68
2022-08-28T09:18:57.184Z,13.98
2022-08-28T09:24:05.472Z,12.63
2022-08-28T09:29:17.672Z,12.90
2022-08-28T09:34:26.774Z,17.98
2022-08-28T09:39:32.369Z,11.73
2022-08-28T09:45:09.073Z,14.90
2022-08-28T09:50:29.757Z,11.18
2022-08-28T09:55:43.547Z,11.20
2022-08-28T10:00:53.025Z,16.55
2022-08-28T10:06:07.960Z,9.25
2022-08-28T10:11:21.324Z,8.98
2022-08-28T10:16:33.071Z,11.07
2022-08-28T10:21:41.444Z,12.18
2022-08-28T10:26:52.308Z,9.45
2022-08-28T10:32:16.481Z,13.98
2022-08-28T10:37:37.809Z,9.27
2022-08-28T10:42:46.889Z,10.35
2022-08-28T10:47:53.062Z,8.30
2022-08-28T10:53:02.415Z,12.90
2022-08-28T10:58:24.165Z,10.70
2022-08-28T11:03:34.793Z,14.13
2022-08-28T11:08:40.569Z,9.60
2022-08-28T11:13:56.271Z,13.55
2022-08-28T11:19:20.616Z,11.85
2022-08-28T11:24:36.127Z,11.10
2022-08-28T11:30:27.008Z,6.95
2022-08-28T11:35:51.993Z,10.32
2022-08-28T11:41:09.864Z,9.23
2022-08-28T11:46:26.067Z,6.75
2022-08-28T11:51:47.453Z,8.50
2022-08-28T11:57:02.722Z,12.65
2022-08-28T12:02:47.044Z,11.30
2022-08-28T12:07:52.088Z,11.43
2022-08-28T12:12:59.138Z,7.35
2022-08-28T12:18:03.521Z,11.27
2022-08-28T12:23:33.532Z,10.40
2022-08-28T12:28:46.079Z,9.17
2022-08-28T12:33:55.496Z,8.77
2022-08-28T12:38:58.791Z,8.13
2022-08-28T12:44:05.199Z,8.57
2022-08-28T12:49:27.721Z,13.05
2022-08-28T12:54:30.602Z,11.75
2022-08-28T12:59:38.070Z,14.13
2022-08-28T13:04:54.767Z,14.80
2022-08-28T13:10:01.790Z,12.77
2022-08-28T13:15:08.640Z,13.68
2022-08-28T13:20:12.313Z,7.65
2022-08-28T13:25:21.875Z,13.88
2022-08-28T13:30:28.703Z,10.43
2022-08-28T13:35:39.170Z,9.07
2022-08-28T13:41:03.404Z,11.53
2022-08-28T13:46:08.084Z,10.52
2022-08-28T13:51:20.672Z,12.77
2022-08-28T13:56:24.046Z,14.02
2022-08-28T14:01:48.709Z,13.98
2022-08-28T14:06:52.009Z,10.07
2022-08-28T14:11:58.236Z,17.58
2022-08-28T14:17:02.847Z,9.80
2022-08-28T14:22:05.909Z,12.15
2022-08-28T14:27:09.359Z,11.70
2022-08-28T14:32:14.124Z,11.43
2022-08-28T14:37:18.312Z,7.88
2022-08-28T14:42:21.183Z,11.95
2022-08-28T14:47:25.647Z,8.40
2022-08-28T14:52:28.505Z,16.20
2022-08-28T14:57:31.332Z,12.40
2022-08-28T15:02:36.122Z,9.98
2022-08-28T15:07:39.185Z,9.43
2022-08-28T15:12:42.597Z,9.63
2022-08-28T15:17:46.893Z,9.65
2022-08-28T15:22:49.869Z,10.77
2022-08-28T15:27:52.752Z,10.00
2022-08-28T15:32:58.219Z,10.68
2022-08-28T15:38:01.230Z,14.43
2022-08-28T15:43:04.350Z,13.88
2022-08-28T15:48:09.770Z,13.52
2022-08-28T15:53:13.046Z,7.47
2022-08-28T15:58:16.030Z,8.57
2022-08-28T16:03:21.627Z,14.55
2022-08-28T16:08:25.468Z,11.82
2022-08-28T16:13:28.796Z,12.63
2022-08-28T16:18:33.677Z,9.77
2022-08-28T16:23:38.993Z,8.00
2022-08-28T16:28:42.725Z,8.10
2022-08-28T16:33:47.601Z,10.27
2022-08-28T16:38:59.699Z,11.20
2022-08-28T16:44:07.344Z,7.70
2022-08-28T16:49:12.152Z,11.02
2022-08-28T16:54:18.889Z,6.55
2022-08-28T16:59:23.422Z,9.68
2022-08-28T17:04:31.698Z,10.27
2022-08-28T17:09:34.660Z,7.57
2022-08-28T17:14:38.108Z,7.57
2022-08-28T17:19:45.825Z,8.50
2022-08-28T17:24:52.798Z,18.58
2022-08-28T17:29:57.150Z,10.90
2022-08-28T17:35:02.400Z,13.93
2022-08-28T17:40:09.760Z,12.25
2022-08-28T17:45:13.133Z,12.57
2022-08-28T17:50:17.411Z,15.82
2022-08-28T17:55:21.660Z,10.18
2022-08-28T18:00:25.216Z,9.05
2022-08-28T18:05:29.681Z,9.02
2022-08-28T18:10:34.909Z,9.05
2022-08-28T18:15:38.059Z,8.50
2022-08-28T18:20:43.486Z,11.10
2022-08-28T18:25:50.834Z,10.05
2022-08-28T18:30:54.863Z,16.17
2022-08-28T18:36:09.605Z,11.20
2022-08-28T18:41:13.541Z,10.98
2022-08-28T18:46:18.494Z,7.90
2022-08-28T18:51:23.465Z,11.30
2022-08-28T18:56:27.480Z,9.52
2022-08-28T19:01:34.116Z,9.30
2022-08-28T19:06:38.462Z,8.25
2022-08-28T19:11:41.674Z,9.13
2022-08-28T19:16:44.835Z,7.32
2022-08-28T19:21:49.773Z,6.18
2022-08-28T19:26:52.596Z,5.07
2022-08-28T19:31:56.231Z,5.40
2022-08-28T19:37:00.956Z,4.22
2022-08-28T19:42:03.994Z,4.90
2022-08-28T19:47:07.507Z,4.82
2022-08-28T19:52:12.082Z,5.18
2022-08-28T19:57:15.471Z,4.65
2022-08-28T20:02:23.434Z,5.10
2022-08-28T20:07:30.506Z,9.93
2022-08-28T20:12:33.891Z,10.48
2022-08-28T20:17:43.846Z,7.85
2022-08-28T20:22:53.939Z,10.63
2022-08-28T20:28:01.526Z,8.68
2022-08-28T20:33:05.090Z,6.35
2022-08-28T20:38:11.321Z,4.88
2022-08-28T20:43:14.334Z,5.15
2022-08-28T20:48:17.619Z,7.57
2022-08-28T20:53:36.915Z,7.47
2022-08-28T20:58:40.811Z,6.88
2022-08-28T21:03:50.581Z,8.65
2022-08-28T21:09:09.036Z,7.15
2022-08-28T21:14:23.178Z,6.63
2022-08-28T21:19:30.267Z,9.30
2022-08-28T21:24:35.655Z,7.05
2022-08-28T21:29:38.540Z,6.13
2022-08-28T21:34:41.627Z,5.82
2022-08-28T21:39:46.372Z,5.55
2022-08-28T21:44:51.986Z,5.80
2022-08-28T21:49:56.592Z,6.22
2022-08-28T21:55:03.958Z,7.45
2022-08-28T22:00:09.583Z,8.40
2022-08-28T22:05:13.247Z,6.53
2022-08-28T22:10:18.034Z,7.38
2022-08-28T22:15:21.763Z,7.28
2022-08-28T22:20:25.014Z,9.38
2022-08-28T22:25:29.337Z,5.50
2022-08-28T22:30:33.782Z,6.68
2022-08-28T22:35:38.039Z,4.82
2022-08-28T22:40:43.070Z,4.63
2022-08-28T22:45:47.405Z,6.78
2022-08-28T22:50:51.119Z,4.22
2022-08-28T22:55:56.265Z,5.95
2022-08-28T23:01:01.985Z,5.00
2022-08-28T23:06:05.117Z,6.30
2022-08-28T23:11:09.868Z,8.30
2022-08-28T23:16:13.444Z,9.02
2022-08-28T23:21:16.408Z,8.00
2022-08-28T23:26:23.986Z,8.13
2022-08-28T23:31:27.251Z,7.43
2022-08-28T23:36:30.172Z,8.55
2022-08-28T23:41:34.657Z,10.00
2022-08-28T23:46:41.202Z,7.90
2022-08-28T23:51:44.953Z,5.63
2022-08-28T23:56:51.141Z,10.40
